Time;durP1;ratioP1;P1;durP2;ratioP2;P2;SDS_P1;SDS_P2;PMS_P1;PMS_P2;Temp;Humidity;BMP_temperature;BMP_pressure;BME280_temperature;BME280_humidity;BME280_pressure;Samples;Min_cycle;Max_cycle;Signal;HPM_P1;HPM_P2
2023/09/29 00:01:58;;;;;;;732.78;314.58;;;;;;;;;;5070845;28;20028;-72
2023/09/29 00:04:26;;;;;;;768.70;339.50;;;;;;;;;;5070709;28;20584;-73
2023/09/29 00:09:34;;;;;;;644.45;329.98;;;;;;;;;;5090808;27;20930;-72
2023/09/29 00:12:00;;;;;;;628.70;330.30;;;;;;;;;;5091242;28;20032;-72
2023/09/29 00:14:35;;;;;;;571.70;311.88;;;;;;;;;;5112022;27;20404;-73
2023/09/29 00:17:02;;;;;;;575.25;319.13;;;;;;;;;;5111141;28;20065;-72
2023/09/29 00:19:28;;;;;;;466.00;275.15;;;;;;;;;;5111428;28;20086;-73
2023/09/29 00:24:22;;;;;;;731.50;342.35;;;;;;;;;;5070543;28;20387;-73
2023/09/29 00:27:52;;;;;;;708.25;318.27;;;;;;;;;;5070883;28;20465;-74
2023/09/29 00:30:19;;;;;;;694.53;328.27;;;;;;;;;;5070388;28;20020;-72
2023/09/29 00:34:06;;;;;;;595.72;322.02;;;;;;;;;;5091157;28;20386;-72
2023/09/29 00:36:32;;;;;;;;;;;;;;;;;;5073147;28;20032;-73
2023/09/29 00:38:58;;;;;;;662.97;377.95;;;;;;;;;;5089326;28;20447;-72
2023/09/29 00:44:58;;;;;;;761.35;363.48;;;;;;;;;;5111004;27;20588;-73
2023/09/29 00:48:10;;;;;;;258.50;175.55;;;;;;;;;;5132672;27;20319;-72
2023/09/29 00:52:17;;;;;;;620.83;319.15;;;;;;;;;;5111032;27;20377;-73
2023/09/29 00:54:43;;;;;;;529.38;287.92;;;;;;;;;;5111634;28;20048;-73
2023/09/29 00:57:28;;;;;;;761.13;326.10;;;;;;;;;;5110477;27;20770;-72
2023/09/29 01:10:26;;;;;;;242.40;172.50;;;;;;;;;;5132332;27;20372;-72
2023/09/29 01:13:28;;;;;;;719.88;336.83;;;;;;;;;;5151208;27;20501;-72
2023/09/29 01:15:54;;;;;;;488.40;284.17;;;;;;;;;;5113441;28;20057;-72
2023/09/29 01:18:21;;;;;;;605.42;321.77;;;;;;;;;;5131446;28;20417;-72
2023/09/29 01:20:47;;;;;;;714.50;347.38;;;;;;;;;;5130137;28;20388;-72
2023/09/29 01:23:13;;;;;;;507.27;295.42;;;;;;;;;;5131777;28;20030;-72
2023/09/29 01:26:56;;;;;;;693.22;324.63;;;;;;;;;;5111404;27;20384;-72
2023/09/29 01:29:22;;;;;;;670.00;318.23;;;;;;;;;;5111608;28;20024;-72
2023/09/29 01:32:59;;;;;;;716.03;318.63;;;;;;;;;;5112009;27;20397;-72
2023/09/29 01:40:22;;;;;;;574.53;295.23;;;;;;;;;;5070645;27;20437;-73
2023/09/29 01:43:48;;;;;;;530.92;299.40;;;;;;;;;;5071650;28;20456;-72
2023/09/29 01:53:15;;;;;;;712.63;337.58;;;;;;;;;;5110753;27;20438;-73
2023/09/29 01:55:54;;;;;;;570.72;294.55;;;;;;;;;;5111114;27;20445;-73
2023/09/29 01:59:44;;;;;;;324.67;225.73;;;;;;;;;;5111680;27;20392;-72
2023/09/29 02:02:10;;;;;;;;;;;;;;;;;;5111475;28;20028;-73
2023/09/29 02:05:59;;;;;;;;;;;;;;;;;;5071783;28;20387;-73
2023/09/29 02:08:26;;;;;;;649.80;394.23;;;;;;;;;;5069457;28;20457;-73
2023/09/29 02:10:52;;;;;;;703.73;417.30;;;;;;;;;;5069665;28;20408;-72
2023/09/29 02:13:18;;;;;;;741.97;445.63;;;;;;;;;;5070035;28;20393;-73
2023/09/29 02:19:18;;;;;;;637.88;320.60;;;;;;;;;;5111524;27;20426;-73
2023/09/29 02:21:45;;;;;;;630.58;330.10;;;;;;;;;;5111478;28;20069;-72
2023/09/29 02:24:12;;;;;;;605.47;319.33;;;;;;;;;;5110933;28;20137;-72
2023/09/29 02:26:39;;;;;;;493.77;289.80;;;;;;;;;;5111835;28;20016;-72
2023/09/29 02:29:08;;;;;;;;;;;;;;;;;;5111633;28;20371;-72
2023/09/29 02:31:36;;;;;;;;;;;;;;;;;;5111177;28;20360;-71
2023/09/29 02:34:02;;;;;;;;;;;;;;;;;;5110507;28;19910;-72
2023/09/29 02:36:28;;;;;;;;;;;;;;;;;;5111051;28;20256;-72
2023/09/29 02:38:54;;;;;;;;;;;;;;;;;;5111368;28;19911;-72
2023/09/29 02:41:20;;;;;;;;;;;;;;;;;;5111362;28;19974;-72
2023/09/29 02:43:46;;;;;;;327.23;245.18;;;;;;;;;;5108863;28;20408;-72
2023/09/29 02:48:23;;;;;;;;;;;;;;;;;;5112267;27;20385;-72
2023/09/29 02:50:49;;;;;;;;;;;;;;;;;;5111317;28;19991;-73
2023/09/29 02:53:15;;;;;;;;;;;;;;;;;;5110407;28;19904;-73
2023/09/29 02:55:41;;;;;;;;;;;;;;;;;;5111994;28;19995;-73
2023/09/29 02:58:07;;;;;;;;;;;;;;;;;;5111337;28;19947;-72
2023/09/29 03:00:34;;;;;;;;;;;;;;;;;;5111581;28;19903;-73
2023/09/29 03:03:00;;;;;;;;;;;;;;;;;;5111511;28;20326;-73
2023/09/29 03:06:21;;;;;;;;;;;;;;;;;;5111581;27;19916;-73
2023/09/29 03:08:51;;;;;;;;;;;;;;;;;;5111716;28;19951;-72
2023/09/29 03:13:48;;;;;;;;;;;;;;;;;;5091189;27;19912;-74
2023/09/29 03:16:14;;;;;;;;;;;;;;;;;;5091472;28;19959;-73
2023/09/29 03:18:40;;;;;;;;;;;;;;;;;;5091026;28;19940;-73
2023/09/29 03:21:07;;;;;;;;;;;;;;;;;;5091261;28;19912;-72
2023/09/29 03:23:56;;;;;;;;;;;;;;;;;;5112481;27;19912;-72
2023/09/29 03:26:22;;;;;;;;;;;;;;;;;;5111555;28;19912;-72
2023/09/29 03:32:41;;;;;;;733.28;499.52;;;;;;;;;;5110281;27;20441;-72
2023/09/29 03:37:46;;;;;;;613.97;356.00;;;;;;;;;;5111407;27;20397;-73
2023/09/29 03:42:20;;;;;;;641.47;359.58;;;;;;;;;;5111951;27;20409;-72
2023/09/29 03:44:47;;;;;;;646.53;377.48;;;;;;;;;;5111606;28;20031;-72
2023/09/29 03:47:13;;;;;;;653.38;357.08;;;;;;;;;;5111004;28;20024;-72
2023/09/29 03:52:32;;;;;;;617.20;333.63;;;;;;;;;;5070941;28;20383;-72
2023/09/29 03:54:58;;;;;;;631.47;338.13;;;;;;;;;;5069106;28;20024;-72
2023/09/29 03:58:24;;;;;;;635.30;352.55;;;;;;;;;;5111553;27;20738;-72
2023/09/29 04:00:50;;;;;;;589.03;310.45;;;;;;;;;;5110948;28;20077;-72
2023/09/29 04:03:16;;;;;;;;;;;;;;;;;;5111632;28;20058;-72
2023/09/29 04:05:42;;;;;;;;;;;;;;;;;;5111677;28;20351;-72
2023/09/29 04:08:08;;;;;;;673.97;319.10;;;;;;;;;;5110510;28;20947;-72
2023/09/29 04:10:36;;;;;;;560.60;302.58;;;;;;;;;;5111192;28;20050;-73
2023/09/29 04:13:03;;;;;;;570.05;303.10;;;;;;;;;;5111297;28;20016;-72
2023/09/29 04:15:29;;;;;;;539.22;301.25;;;;;;;;;;5110778;28;20031;-73
2023/09/29 04:17:55;;;;;;;579.22;401.05;;;;;;;;;;5110310;28;20770;-73
2023/09/29 04:20:21;;;;;;;477.92;289.73;;;;;;;;;;5110965;28;20027;-73
2023/09/29 04:22:47;;;;;;;663.15;313.10;;;;;;;;;;5110528;28;20486;-72
2023/09/29 04:25:13;;;;;;;622.58;328.77;;;;;;;;;;5111025;28;20024;-72
2023/09/29 04:27:40;;;;;;;521.17;258.60;;;;;;;;;;5110452;28;20031;-72
2023/09/29 04:30:07;;;;;;;771.00;334.48;;;;;;;;;;5109795;28;20031;-72
2023/09/29 04:32:33;;;;;;;402.02;263.83;;;;;;;;;;5110821;28;20027;-72
2023/09/29 04:34:59;;;;;;;319.48;236.80;;;;;;;;;;5110509;28;20012;-73
2023/09/29 04:38:54;;;;;;;;;;;;;;;;;;5112522;27;20283;-72
2023/09/29 04:41:21;;;;;;;;;;;;;;;;;;5111827;28;19912;-72
2023/09/29 04:43:46;;;;;;;;;;;;;;;;;;5110988;28;20015;-73
2023/09/29 04:47:58;;;;;;;543.22;298.70;;;;;;;;;;5108649;27;20937;-72
2023/09/29 04:50:36;;;;;;;530.50;304.38;;;;;;;;;;5108604;27;20449;-72
2023/09/29 04:54:24;;;;;;;;;;;;;;;;;;5109658;27;20404;-72
2023/09/29 04:56:50;;;;;;;;;;;;;;;;;;5110339;28;19961;-72
2023/09/29 04:59:16;;;;;;;;;;;;;;;;;;5110034;28;19907;-72
2023/09/29 05:02:40;;;;;;;;;;;;;;;;;;5112845;27;19922;-73
2023/09/29 05:05:06;;;;;;;;;;;;;;;;;;5111441;28;20360;-73
2023/09/29 05:07:32;;;;;;;;;;;;;;;;;;5110431;28;19908;-73
2023/09/29 05:09:58;;;;;;;;;;;;;;;;;;5111671;28;19908;-73
2023/09/29 05:12:24;;;;;;;;;;;;;;;;;;5111183;28;19915;-73
2023/09/29 05:14:50;;;;;;;;;;;;;;;;;;5111552;28;20317;-73
2023/09/29 05:17:16;;;;;;;;;;;;;;;;;;5117246;28;19908;-73
2023/09/29 05:21:59;;;;;;;;;;;;;;;;;;5107154;27;19916;-72
2023/09/29 05:24:25;;;;;;;;;;;;;;;;;;5109749;28;19912;-73
2023/09/29 05:26:51;;;;;;;;;;;;;;;;;;5110643;28;19908;-72
2023/09/29 05:29:17;;;;;;;;;;;;;;;;;;5110770;28;19922;-73
2023/09/29 05:31:43;;;;;;;;;;;;;;;;;;5111018;28;19912;-72
2023/09/29 05:34:09;;;;;;;;;;;;;;;;;;5109019;28;19919;-74
2023/09/29 05:36:36;;;;;;;;;;;;;;;;;;5117118;28;19923;-76
2023/09/29 05:39:03;;;;;;;;;;;;;;;;;;5110900;28;19908;-74
2023/09/29 05:41:31;;;;;;;;;;;;;;;;;;5100948;28;19920;-74
2023/09/29 05:43:57;;;;;;;;;;;;;;;;;;5109000;28;19912;-75
2023/09/29 05:46:24;;;;;;;;;;;;;;;;;;5108375;28;19912;-74
2023/09/29 05:48:50;;;;;;;;;;;;;;;;;;5108547;28;19919;-74
2023/09/29 05:51:16;;;;;;;;;;;;;;;;;;5099263;28;19916;-72
2023/09/29 05:53:42;;;;;;;;;;;;;;;;;;5107686;28;19919;-75
2023/09/29 05:56:14;;;;;;;;;;;;;;;;;;5091283;27;19916;-72
2023/09/29 05:58:40;;;;;;;;;;;;;;;;;;5086393;28;19932;-73
2023/09/29 06:01:06;;;;;;;;;;;;;;;;;;5120213;28;19920;-72
2023/09/29 06:03:32;;;;;;;;;;;;;;;;;;5096546;28;20269;-73
2023/09/29 06:05:58;;;;;;;;;;;;;;;;;;5074277;28;19965;-71
2023/09/29 06:08:24;;;;;;;;;;;;;;;;;;5079762;28;19912;-73
2023/09/29 06:10:51;;;;;;;;;;;;;;;;;;5088060;28;19912;-70
2023/09/29 06:13:17;;;;;;;;;;;;;;;;;;5110107;28;19926;-75
2023/09/29 06:15:43;;;;;;;;;;;;;;;;;;5109190;28;20331;-75
2023/09/29 06:19:06;;;;;;;;;;;;;;;;;;5150322;27;19984;-76
2023/09/29 06:21:39;;;;;;;;;;;;;;;;;;5121577;27;20320;-74
2023/09/29 06:24:05;;;;;;;625.40;311.20;;;;;;;;;;5129504;28;20385;-75
2023/09/29 06:26:31;;;;;;;648.08;322.40;;;;;;;;;;5126796;28;20580;-73
2023/09/29 06:28:57;;;;;;;605.28;362.13;;;;;;;;;;5092755;28;20410;-72
2023/09/29 06:32:43;;;;;;;637.10;309.83;;;;;;;;;;5108356;27;20426;-70
2023/09/29 06:36:57;;;;;;;639.85;322.67;;;;;;;;;;5151631;27;20118;-71
2023/09/29 06:40:10;;;;;;;657.60;326.02;;;;;;;;;;5106640;27;20392;-71
2023/09/29 06:43:35;;;;;;;736.78;337.00;;;;;;;;;;5045110;28;20451;-74
2023/09/29 06:46:45;;;;;;;602.92;328.25;;;;;;;;;;5107354;27;20773;-74
2023/09/29 06:49:54;;;;;;;651.20;333.55;;;;;;;;;;5063961;28;21233;-76
2023/09/29 06:53:43;;;;;;;681.08;333.30;;;;;;;;;;5068431;28;20404;-74
2023/09/29 06:56:10;;;;;;;718.17;344.20;;;;;;;;;;5047076;28;20033;-74
2023/09/29 06:58:37;;;;;;;698.83;347.88;;;;;;;;;;5048110;28;20428;-71
2023/09/29 07:01:03;;;;;;;669.47;333.55;;;;;;;;;;5058914;28;20074;-70
2023/09/29 07:03:30;;;;;;;683.03;337.13;;;;;;;;;;5070997;28;20025;-71
2023/09/29 07:06:49;;;;;;;672.40;329.10;;;;;;;;;;5128405;27;20116;-71
2023/09/29 07:09:15;;;;;;;608.08;318.60;;;;;;;;;;5097843;28;20078;-71
2023/09/29 07:11:42;;;;;;;497.30;279.63;;;;;;;;;;5088208;28;20059;-71
2023/09/29 07:14:08;;;;;;;720.80;437.95;;;;;;;;;;5087442;28;20514;-71
2023/09/29 07:16:34;;;;;;;616.13;365.38;;;;;;;;;;5088631;28;20070;-69
2023/09/29 07:20:13;;;;;;;729.17;459.60;;;;;;;;;;5068291;28;20492;-73
2023/09/29 07:28:01;;;;;;;689.30;411.95;;;;;;;;;;5108661;27;20449;-71
2023/09/29 07:30:27;;;;;;;718.90;434.43;;;;;;;;;;5107789;28;20932;-72
2023/09/29 07:32:54;;;;;;;706.25;435.98;;;;;;;;;;5095620;28;20419;-71
2023/09/29 07:35:20;;;;;;;716.88;446.40;;;;;;;;;;5067881;28;20938;-70
2023/09/29 07:37:46;;;;;;;697.92;426.23;;;;;;;;;;5067185;28;20417;-71
2023/09/29 07:40:13;;;;;;;686.08;397.55;;;;;;;;;;5073576;28;20446;-72
2023/09/29 07:42:39;;;;;;;697.47;341.00;;;;;;;;;;5101640;28;20085;-73
2023/09/29 07:45:05;;;;;;;812.97;357.40;;;;;;;;;;5092816;28;20029;-71
2023/09/29 07:47:31;;;;;;;713.57;492.23;;;;;;;;;;5108707;28;20414;-72
2023/09/29 07:49:58;;;;;;;681.45;331.55;;;;;;;;;;5106871;28;20313;-73
2023/09/29 07:52:56;;;;;;;624.05;318.88;;;;;;;;;;5130855;27;20579;-71
2023/09/29 08:00:48;;;;;;;647.78;381.90;;;;;;;;;;5106463;28;20430;-73
2023/09/29 08:03:14;;;;;;;644.40;372.23;;;;;;;;;;5111823;28;20028;-70
2023/09/29 08:07:22;;;;;;;509.67;278.17;;;;;;;;;;5110220;27;20377;-71
2023/09/29 08:09:48;;;;;;;564.80;304.10;;;;;;;;;;5098201;28;20077;-73
2023/09/29 08:13:29;;;;;;;607.78;374.85;;;;;;;;;;5108113;27;20396;-70
2023/09/29 08:15:55;;;;;;;624.50;350.75;;;;;;;;;;5107591;28;20093;-71
2023/09/29 08:20:05;;;;;;;806.63;571.25;;;;;;;;;;5108770;27;21045;-70
2023/09/29 08:22:33;;;;;;;643.97;380.77;;;;;;;;;;5092466;28;20426;-70
2023/09/29 08:25:01;;;;;;;610.25;340.73;;;;;;;;;;5089695;28;20032;-69
2023/09/29 08:28:15;;;;;;;774.10;499.35;;;;;;;;;;5105632;27;20485;-70
2023/09/29 08:30:41;;;;;;;667.63;369.85;;;;;;;;;;5106147;28;20413;-72
2023/09/29 08:33:07;;;;;;;597.33;324.38;;;;;;;;;;5088227;28;20031;-69
2023/09/29 08:35:33;;;;;;;702.78;441.58;;;;;;;;;;5086594;28;20403;-69
2023/09/29 08:37:59;;;;;;;552.50;314.98;;;;;;;;;;5088009;28;20035;-71
2023/09/29 08:40:26;;;;;;;623.17;360.10;;;;;;;;;;5086727;28;20740;-71
2023/09/29 08:42:52;;;;;;;446.20;288.65;;;;;;;;;;5095278;28;20044;-71
2023/09/29 08:45:19;;;;;;;626.47;364.70;;;;;;;;;;5097126;28;20379;-72
2023/09/29 08:47:57;;;;;;;784.63;350.55;;;;;;;;;;5100891;28;20424;-71
2023/09/29 08:50:24;;;;;;;674.17;348.50;;;;;;;;;;5084819;28;20490;-71
2023/09/29 08:52:51;;;;;;;646.20;342.98;;;;;;;;;;5085344;28;20885;-71
2023/09/29 08:55:18;;;;;;;408.65;255.38;;;;;;;;;;5085908;28;20435;-72
2023/09/29 08:57:45;;;;;;;817.88;337.63;;;;;;;;;;5092614;28;20451;-73
2023/09/29 09:01:08;;;;;;;599.00;383.88;;;;;;;;;;5064202;28;20395;-72
2023/09/29 09:03:34;;;;;;;707.05;466.27;;;;;;;;;;5062789;28;20505;-72
2023/09/29 09:06:00;;;;;;;623.78;381.42;;;;;;;;;;5065134;28;20052;-71
2023/09/29 09:08:29;;;;;;;658.10;348.45;;;;;;;;;;5065750;28;20060;-71
2023/09/29 09:10:59;;;;;;;656.72;406.08;;;;;;;;;;5063754;28;20406;-74
2023/09/29 09:13:28;;;;;;;639.05;334.52;;;;;;;;;;5066942;28;20021;-75
2023/09/29 09:15:55;;;;;;;695.73;452.47;;;;;;;;;;5068587;28;20390;-74
2023/09/29 09:18:21;;;;;;;650.25;373.58;;;;;;;;;;5068999;28;20103;-75
2023/09/29 09:20:51;;;;;;;739.05;333.40;;;;;;;;;;5067535;28;20064;-76
2023/09/29 09:23:17;;;;;;;;;;;;;;;;;;5069324;28;20021;-77
2023/09/29 09:25:43;;;;;;;;;;;;;;;;;;5069921;28;19958;-77
2023/09/29 09:28:09;;;;;;;;;;;;;;;;;;5069898;28;19995;-76
2023/09/29 09:30:38;;;;;;;;;;;;;;;;;;5067198;28;19905;-74
2023/09/29 09:33:04;;;;;;;;;;;;;;;;;;5067159;28;20364;-76
2023/09/29 09:35:30;;;;;;;;;;;;;;;;;;5066690;28;20278;-77
2023/09/29 09:37:56;;;;;;;;;;;;;;;;;;5084013;28;19904;-74
2023/09/29 09:40:26;;;;;;;;;;;;;;;;;;5086646;28;19916;-75
2023/09/29 09:42:53;;;;;;;;;;;;;;;;;;5085434;28;19908;-76
2023/09/29 09:45:19;;;;;;;;;;;;;;;;;;5084391;28;19911;-75
2023/09/29 09:47:45;;;;;;;;;;;;;;;;;;5084076;28;20292;-75
2023/09/29 09:50:11;;;;;;;;;;;;;;;;;;5084433;28;19950;-75
2023/09/29 09:52:37;;;;;;;;;;;;;;;;;;5083782;28;19908;-75
2023/09/29 09:55:04;;;;;;;;;;;;;;;;;;5085145;28;19905;-75
2023/09/29 09:57:30;;;;;;;;;;;;;;;;;;5086964;28;19908;-76
2023/09/29 09:59:56;;;;;;;704.47;498.60;;;;;;;;;;5085884;28;20407;-76
2023/09/29 10:02:23;;;;;;;653.00;385.90;;;;;;;;;;5087529;28;20064;-76
2023/09/29 10:04:50;;;;;;;677.97;478.75;;;;;;;;;;5086955;28;20389;-74
2023/09/29 10:07:17;;;;;;;683.70;325.70;;;;;;;;;;5088819;28;20082;-71
2023/09/29 10:09:43;;;;;;;;;;;;;;;;;;5088414;28;20020;-76
2023/09/29 10:12:09;;;;;;;;;;;;;;;;;;5076160;28;20390;-75
2023/09/29 10:14:35;;;;;;;;;;;;;;;;;;5075618;28;20466;-74
2023/09/29 10:17:01;;;;;;;;;;;;;;;;;;5074347;28;19920;-74
2023/09/29 10:19:27;;;;;;;;;;;;;;;;;;5070402;28;19956;-75
2023/09/29 10:21:53;;;;;;;;;;;;;;;;;;5054235;28;20280;-71
2023/09/29 10:24:23;;;;;;;;;;;;;;;;;;5054195;28;20535;-74
2023/09/29 10:26:48;;;;;;;;;;;;;;;;;;5053466;28;19905;-74
2023/09/29 10:29:14;;;;;;;;;;;;;;;;;;5054344;28;19957;-75
2023/09/29 10:31:41;;;;;;;;;;;;;;;;;;5053479;28;19909;-73
2023/09/29 10:34:08;;;;;;;;;;;;;;;;;;5050909;28;19909;-73
2023/09/29 10:36:35;;;;;;;652.20;425.52;;;;;;;;;;5037497;28;20381;-78
2023/09/29 10:39:04;;;;;;;671.08;393.17;;;;;;;;;;5051383;28;20047;-74
2023/09/29 10:41:32;;;;;;;656.22;364.10;;;;;;;;;;5052687;28;20033;-73
2023/09/29 10:44:01;;;;;;;679.42;509.27;;;;;;;;;;5051861;28;20445;-74
2023/09/29 10:46:28;;;;;;;;;;;;;;;;;;5046359;28;20040;-74
2023/09/29 10:48:55;;;;;;;342.63;255.45;;;;;;;;;;5051318;28;20308;-73
2023/09/29 10:51:22;;;;;;;;;;;;;;;;;;5051080;28;20021;-74
2023/09/29 10:53:48;;;;;;;;;;;;;;;;;;5045616;28;19909;-73
2023/09/29 10:56:14;;;;;;;;;;;;;;;;;;5052914;28;20253;-74
2023/09/29 10:58:40;;;;;;;;;;;;;;;;;;5051351;28;20353;-72
2023/09/29 11:01:11;;;;;;;;;;;;;;;;;;5051878;28;19917;-73
2023/09/29 11:03:39;;;;;;;;;;;;;;;;;;5052759;28;20288;-74
2023/09/29 11:06:09;;;;;;;;;;;;;;;;;;5052926;28;19912;-75
2023/09/29 11:08:34;;;;;;;;;;;;;;;;;;5054793;28;19911;-74
2023/09/29 11:11:01;;;;;;;;;;;;;;;;;;5053408;28;19944;-74
2023/09/29 11:13:27;;;;;;;;;;;;;;;;;;5053474;28;19908;-74
2023/09/29 11:15:53;;;;;;;673.03;341.53;;;;;;;;;;5054082;28;20391;-74
2023/09/29 11:18:30;;;;;;;678.90;365.15;;;;;;;;;;5053937;28;20021;-74
2023/09/29 11:21:01;;;;;;;667.58;481.25;;;;;;;;;;5040487;28;20455;-74
2023/09/29 11:23:28;;;;;;;677.45;341.27;;;;;;;;;;5032168;28;20030;-75
2023/09/29 11:26:02;;;;;;;776.45;349.65;;;;;;;;;;5031348;28;20400;-74
2023/09/29 11:28:28;;;;;;;703.63;358.77;;;;;;;;;;5046970;28;20026;-74
2023/09/29 11:30:55;;;;;;;803.47;340.83;;;;;;;;;;5029770;28;20809;-74
2023/09/29 11:33:21;;;;;;;681.13;363.95;;;;;;;;;;5029429;28;20029;-75
2023/09/29 11:35:47;;;;;;;686.03;358.70;;;;;;;;;;5030703;28;20053;-74
2023/09/29 11:38:20;;;;;;;662.05;361.55;;;;;;;;;;5030895;28;20217;-74
2023/09/29 11:40:48;;;;;;;632.00;348.13;;;;;;;;;;5031902;28;20041;-74
2023/09/29 11:43:14;;;;;;;;;;;;;;;;;;5032705;28;20052;-74
2023/09/29 11:45:41;;;;;;;597.95;342.77;;;;;;;;;;5031195;28;20807;-74
2023/09/29 11:48:08;;;;;;;706.88;361.45;;;;;;;;;;5031832;28;20032;-74
2023/09/29 11:50:34;;;;;;;701.53;356.75;;;;;;;;;;5032029;28;20053;-74
2023/09/29 11:53:03;;;;;;;711.33;368.00;;;;;;;;;;5031345;28;20018;-74
2023/09/29 11:55:30;;;;;;;710.28;362.13;;;;;;;;;;5031540;28;20056;-74
2023/09/29 11:57:56;;;;;;;718.42;368.30;;;;;;;;;;5032543;28;20033;-74
2023/09/29 12:00:22;;;;;;;729.50;368.20;;;;;;;;;;5032775;28;20406;-74
2023/09/29 12:02:49;;;;;;;748.67;359.35;;;;;;;;;;5048954;28;20444;-74
2023/09/29 12:05:15;;;;;;;744.13;358.05;;;;;;;;;;5033553;28;20045;-74
2023/09/29 12:07:41;;;;;;;744.15;357.90;;;;;;;;;;5033308;28;20028;-75
2023/09/29 12:10:08;;;;;;;748.55;360.30;;;;;;;;;;5033941;28;20037;-75
2023/09/29 12:12:34;;;;;;;759.38;358.67;;;;;;;;;;5033870;28;20022;-75
2023/09/29 12:15:00;;;;;;;766.15;353.58;;;;;;;;;;5033517;28;20033;-74
2023/09/29 12:17:26;;;;;;;761.08;364.90;;;;;;;;;;5033415;28;20052;-75
2023/09/29 12:19:52;;;;;;;756.03;358.98;;;;;;;;;;5033297;28;20097;-74
2023/09/29 12:22:18;;;;;;;761.83;363.90;;;;;;;;;;5031415;28;20028;-75
2023/09/29 12:24:45;;;;;;;750.35;355.88;;;;;;;;;;5031675;28;20481;-75
2023/09/29 12:27:11;;;;;;;752.83;360.10;;;;;;;;;;5031910;28;20405;-75
2023/09/29 12:29:37;;;;;;;751.58;358.92;;;;;;;;;;5033250;28;20071;-75
2023/09/29 12:32:03;;;;;;;750.55;350.90;;;;;;;;;;5032860;28;20100;-75
2023/09/29 12:34:32;;;;;;;751.78;352.60;;;;;;;;;;5030971;28;20100;-75
2023/09/29 12:36:59;;;;;;;758.72;360.23;;;;;;;;;;5053159;28;20473;-75
2023/09/29 12:39:25;;;;;;;754.28;363.75;;;;;;;;;;5053217;28;20107;-74
2023/09/29 12:41:51;;;;;;;741.72;367.05;;;;;;;;;;5052576;28;20103;-74
2023/09/29 12:44:17;;;;;;;725.72;361.20;;;;;;;;;;5053191;28;20107;-74
2023/09/29 12:46:44;;;;;;;745.30;369.10;;;;;;;;;;5052944;28;20421;-74
2023/09/29 12:49:10;;;;;;;755.92;358.25;;;;;;;;;;5052715;28;20446;-75
2023/09/29 12:51:37;;;;;;;767.03;361.55;;;;;;;;;;5052898;28;20477;-74
2023/09/29 12:54:03;;;;;;;758.35;350.63;;;;;;;;;;5052689;28;20021;-74
2023/09/29 12:56:30;;;;;;;767.40;362.40;;;;;;;;;;5051236;28;20045;-74
2023/09/29 12:58:56;;;;;;;771.60;360.98;;;;;;;;;;5052811;28;20021;-75
2023/09/29 13:01:23;;;;;;;750.97;357.33;;;;;;;;;;5052950;28;20396;-75
2023/09/29 13:03:49;;;;;;;755.08;364.15;;;;;;;;;;5052588;28;20078;-74
2023/09/29 13:06:15;;;;;;;768.92;366.67;;;;;;;;;;5052794;28;20032;-75
2023/09/29 13:08:41;;;;;;;763.55;361.20;;;;;;;;;;5053095;28;20021;-75
2023/09/29 13:11:15;;;;;;;776.00;363.55;;;;;;;;;;5052848;28;20025;-75
2023/09/29 13:13:41;;;;;;;770.50;366.63;;;;;;;;;;5053384;28;20020;-75
2023/09/29 13:16:09;;;;;;;768.05;366.48;;;;;;;;;;5052036;28;20017;-74
2023/09/29 13:18:35;;;;;;;745.58;356.42;;;;;;;;;;5052145;28;20079;-74
2023/09/29 13:21:01;;;;;;;767.58;365.00;;;;;;;;;;5052912;28;20126;-75
2023/09/29 13:23:27;;;;;;;758.75;366.02;;;;;;;;;;5053066;28;20090;-74
2023/09/29 13:25:54;;;;;;;777.63;369.25;;;;;;;;;;5053100;28;20017;-74
2023/09/29 13:28:20;;;;;;;806.72;364.67;;;;;;;;;;5051643;28;20018;-74
2023/09/29 13:30:46;;;;;;;802.78;365.52;;;;;;;;;;5052743;28;20507;-75
2023/09/29 13:33:12;;;;;;;796.55;358.65;;;;;;;;;;5051999;28;20025;-75
2023/09/29 13:35:39;;;;;;;798.10;354.63;;;;;;;;;;5052945;28;20028;-75
2023/09/29 13:38:05;;;;;;;703.53;388.98;;;;;;;;;;5052561;28;20052;-74
2023/09/29 13:40:31;;;;;;;676.63;396.00;;;;;;;;;;5052779;28;20504;-75
2023/09/29 13:42:57;;;;;;;644.03;449.63;;;;;;;;;;5052887;28;20049;-75
2023/09/29 13:45:23;;;;;;;628.20;434.73;;;;;;;;;;5052476;28;20102;-75
2023/09/29 13:47:49;;;;;;;637.05;471.27;;;;;;;;;;5056350;28;20025;-75
2023/09/29 13:50:15;;;;;;;655.17;440.63;;;;;;;;;;5056591;28;20380;-75
2023/09/29 13:52:41;;;;;;;636.83;447.58;;;;;;;;;;5056146;28;20047;-75
2023/09/29 13:55:08;;;;;;;668.47;443.70;;;;;;;;;;5056491;28;20024;-75
2023/09/29 13:57:34;;;;;;;646.85;432.33;;;;;;;;;;5056424;28;20481;-75
2023/09/29 14:00:01;;;;;;;634.88;459.58;;;;;;;;;;5053673;28;20064;-76
2023/09/29 14:02:27;;;;;;;643.58;412.25;;;;;;;;;;5056265;28;20028;-76
2023/09/29 14:04:55;;;;;;;671.00;400.25;;;;;;;;;;5056018;28;20017;-76
2023/09/29 14:07:21;;;;;;;799.28;314.77;;;;;;;;;;5055599;28;20021;-76
2023/09/29 14:09:47;;;;;;;746.63;358.88;;;;;;;;;;5055694;28;20025;-75
2023/09/29 14:12:13;;;;;;;686.63;411.58;;;;;;;;;;5056233;28;20106;-77
2023/09/29 14:14:43;;;;;;;635.83;432.42;;;;;;;;;;5055484;28;20025;-74
2023/09/29 14:17:09;;;;;;;631.83;453.20;;;;;;;;;;5056080;28;20358;-76
2023/09/29 14:19:35;;;;;;;632.92;438.90;;;;;;;;;;5056076;28;20037;-75
2023/09/29 14:22:02;;;;;;;637.30;401.17;;;;;;;;;;5055632;28;20054;-75
2023/09/29 14:24:28;;;;;;;805.25;341.35;;;;;;;;;;5055937;28;20025;-75
2023/09/29 14:26:55;;;;;;;644.47;353.40;;;;;;;;;;5055753;28;20432;-75
2023/09/29 14:29:21;;;;;;;549.58;329.73;;;;;;;;;;5055743;28;20055;-74
2023/09/29 14:31:48;;;;;;;540.00;326.92;;;;;;;;;;5055883;28;20445;-75
2023/09/29 14:34:17;;;;;;;520.13;321.23;;;;;;;;;;5055469;28;20044;-74
2023/09/29 14:36:44;;;;;;;601.00;339.33;;;;;;;;;;5054365;28;20503;-74
2023/09/29 14:39:10;;;;;;;626.80;343.55;;;;;;;;;;5053563;28;20434;-75
2023/09/29 14:41:41;;;;;;;555.88;337.85;;;;;;;;;;5053806;28;20033;-75
2023/09/29 14:44:07;;;;;;;569.13;335.88;;;;;;;;;;5055695;28;20017;-74
2023/09/29 14:46:33;;;;;;;482.58;317.73;;;;;;;;;;5054283;28;20036;-75
2023/09/29 14:49:00;;;;;;;421.45;285.20;;;;;;;;;;5054675;28;20025;-74
2023/09/29 14:51:27;;;;;;;385.52;291.73;;;;;;;;;;5055434;28;20022;-74
2023/09/29 14:53:53;;;;;;;393.73;286.73;;;;;;;;;;5055163;28;20036;-77
2023/09/29 14:56:19;;;;;;;291.25;252.73;;;;;;;;;;5055121;28;20025;-75
2023/09/29 14:58:45;;;;;;;281.98;250.68;;;;;;;;;;5054965;28;20079;-73
2023/09/29 15:01:11;;;;;;;351.13;274.77;;;;;;;;;;5055395;28;20032;-74
2023/09/29 15:03:38;;;;;;;408.45;291.80;;;;;;;;;;5054702;28;20027;-74
2023/09/29 15:06:08;;;;;;;446.00;310.15;;;;;;;;;;5055045;28;20025;-75
2023/09/29 15:08:35;;;;;;;428.33;303.70;;;;;;;;;;5055093;28;20096;-75
2023/09/29 15:11:01;;;;;;;441.80;307.48;;;;;;;;;;5054774;28;20025;-75
2023/09/29 15:13:28;;;;;;;482.75;314.40;;;;;;;;;;5055000;28;20036;-76
2023/09/29 15:15:57;;;;;;;553.13;334.38;;;;;;;;;;5055027;28;20053;-75
2023/09/29 15:18:23;;;;;;;567.65;337.50;;;;;;;;;;5054486;28;20079;-75
2023/09/29 15:20:53;;;;;;;588.17;340.77;;;;;;;;;;5054984;28;20065;-75
2023/09/29 15:23:19;;;;;;;594.65;339.20;;;;;;;;;;5054760;28;20702;-75
2023/09/29 15:25:46;;;;;;;613.08;330.67;;;;;;;;;;5054766;28;20029;-75
2023/09/29 15:28:16;;;;;;;626.70;347.67;;;;;;;;;;5054709;28;20025;-75
2023/09/29 15:30:43;;;;;;;594.13;329.70;;;;;;;;;;5054281;28;20044;-76
2023/09/29 15:33:11;;;;;;;627.55;348.25;;;;;;;;;;5054645;28;20059;-76
2023/09/29 15:35:38;;;;;;;621.47;348.95;;;;;;;;;;5054361;28;20048;-76
2023/09/29 15:38:04;;;;;;;628.15;349.20;;;;;;;;;;5052284;28;20477;-76
2023/09/29 15:40:30;;;;;;;658.95;351.50;;;;;;;;;;5052374;28;20037;-76
2023/09/29 15:42:56;;;;;;;658.70;348.52;;;;;;;;;;5050937;28;20489;-75
2023/09/29 15:45:22;;;;;;;650.90;348.05;;;;;;;;;;5051968;28;20057;-76
2023/09/29 15:47:48;;;;;;;636.65;338.38;;;;;;;;;;5052654;28;20089;-77
2023/09/29 15:50:14;;;;;;;617.15;339.05;;;;;;;;;;5052589;28;20029;-75
2023/09/29 15:52:41;;;;;;;550.78;330.00;;;;;;;;;;5053143;28;20017;-77
2023/09/29 15:55:07;;;;;;;519.30;321.50;;;;;;;;;;5054210;28;20024;-76
2023/09/29 15:57:33;;;;;;;502.27;325.70;;;;;;;;;;5054154;28;20021;-77
2023/09/29 16:00:00;;;;;;;494.05;318.60;;;;;;;;;;5053544;28;20094;-76
2023/09/29 16:02:26;;;;;;;570.58;323.10;;;;;;;;;;5052947;28;20044;-75
2023/09/29 16:04:53;;;;;;;306.50;248.45;;;;;;;;;;5054043;28;20025;-75
2023/09/29 16:07:19;;;;;;;;;;;;;;;;;;5053865;28;20512;-76
2023/09/29 16:09:45;;;;;;;;;;;;;;;;;;5053915;28;19906;-75
2023/09/29 16:12:11;;;;;;;;;;;;;;;;;;5054329;28;19959;-75
2023/09/29 16:14:37;;;;;;;;;;;;;;;;;;5053938;28;19912;-75
2023/09/29 16:17:03;;;;;;;;;;;;;;;;;;5054322;28;19904;-74